sensor_id;sensor_type;location;lat;lon;timestamp;P1;durP1;ratioP1;P2;durP2;ratioP2
23716;SDS011;22094;52.130;5.598;2022-08-03T00:01:54;9.38;;;2.33;;
23716;SDS011;22094;52.130;5.598;2022-08-03T00:04:19;9.48;;;2.90;;
23716;SDS011;22094;52.130;5.598;2022-08-03T00:06:45;8.43;;;3.13;;
23716;SDS011;22094;52.130;5.598;2022-08-03T00:09:10;9.57;;;2.50;;
23716;SDS011;22094;52.130;5.598;2022-08-03T00:11:36;7.47;;;2.47;;
23716;SDS011;22094;52.130;5.598;2022-08-03T00:14:03;9.07;;;2.90;;
23716;SDS011;22094;52.130;5.598;2022-08-03T00:16:29;10.05;;;2.95;;
23716;SDS011;22094;52.130;5.598;2022-08-03T00:18:55;7.13;;;2.60;;
23716;SDS011;22094;52.130;5.598;2022-08-03T00:21:20;8.05;;;2.58;;
23716;SDS011;22094;52.130;5.598;2022-08-03T00:23:46;9.15;;;3.08;;
23716;SDS011;22094;52.130;5.598;2022-08-03T00:26:12;10.20;;;2.70;;
23716;SDS011;22094;52.130;5.598;2022-08-03T00:28:37;5.63;;;2.63;;
23716;SDS011;22094;52.130;5.598;2022-08-03T00:31:03;12.77;;;2.90;;
23716;SDS011;22094;52.130;5.598;2022-08-03T00:33:28;8.35;;;2.45;;
23716;SDS011;22094;52.130;5.598;2022-08-03T00:35:54;10.45;;;2.80;;
23716;SDS011;22094;52.130;5.598;2022-08-03T00:38:19;8.23;;;2.60;;
23716;SDS011;22094;52.130;5.598;2022-08-03T00:40:45;10.45;;;2.83;;
23716;SDS011;22094;52.130;5.598;2022-08-03T00:43:10;6.53;;;2.90;;
23716;SDS011;22094;52.130;5.598;2022-08-03T00:45:37;7.32;;;2.75;;
23716;SDS011;22094;52.130;5.598;2022-08-03T00:48:04;10.25;;;2.75;;
23716;SDS011;22094;52.130;5.598;2022-08-03T00:50:34;10.68;;;2.67;;
23716;SDS011;22094;52.130;5.598;2022-08-03T00:53:04;6.97;;;3.00;;
23716;SDS011;22094;52.130;5.598;2022-08-03T00:55:31;11.48;;;3.50;;
23716;SDS011;22094;52.130;5.598;2022-08-03T00:57:58;8.68;;;3.20;;
23716;SDS011;22094;52.130;5.598;2022-08-03T01:00:28;8.70;;;3.20;;
23716;SDS011;22094;52.130;5.598;2022-08-03T01:02:54;8.95;;;3.03;;
23716;SDS011;22094;52.130;5.598;2022-08-03T01:05:20;10.18;;;3.40;;
23716;SDS011;22094;52.130;5.598;2022-08-03T01:18:24;10.38;;;3.50;;
23716;SDS011;22094;52.130;5.598;2022-08-03T01:21:06;8.30;;;3.90;;
23716;SDS011;22094;52.130;5.598;2022-08-03T01:29:37;7.70;;;4.13;;
23716;SDS011;22094;52.130;5.598;2022-08-03T01:32:09;9.77;;;4.72;;
23716;SDS011;22094;52.130;5.598;2022-08-03T01:35:02;11.40;;;4.55;;
23716;SDS011;22094;52.130;5.598;2022-08-03T01:37:30;10.90;;;4.43;;
23716;SDS011;22094;52.130;5.598;2022-08-03T01:40:03;8.85;;;4.30;;
23716;SDS011;22094;52.130;5.598;2022-08-03T01:42:30;13.85;;;5.00;;
23716;SDS011;22094;52.130;5.598;2022-08-03T01:44:57;14.73;;;5.13;;
23716;SDS011;22094;52.130;5.598;2022-08-03T01:47:24;11.55;;;4.65;;
23716;SDS011;22094;52.130;5.598;2022-08-03T01:49:52;10.93;;;4.88;;
23716;SDS011;22094;52.130;5.598;2022-08-03T01:52:20;19.02;;;5.07;;
23716;SDS011;22094;52.130;5.598;2022-08-03T01:54:47;10.98;;;4.90;;
23716;SDS011;22094;52.130;5.598;2022-08-03T01:57:16;12.23;;;4.95;;
23716;SDS011;22094;52.130;5.598;2022-08-03T01:59:44;12.73;;;4.95;;
23716;SDS011;22094;52.130;5.598;2022-08-03T02:02:13;13.38;;;5.25;;
23716;SDS011;22094;52.130;5.598;2022-08-03T02:04:44;16.92;;;5.20;;
23716;SDS011;22094;52.130;5.598;2022-08-03T02:07:11;11.90;;;5.30;;
23716;SDS011;22094;52.130;5.598;2022-08-03T02:09:39;11.68;;;5.10;;
23716;SDS011;22094;52.130;5.598;2022-08-03T02:12:08;12.63;;;5.28;;
23716;SDS011;22094;52.130;5.598;2022-08-03T02:14:35;14.73;;;5.95;;
23716;SDS011;22094;52.130;5.598;2022-08-03T02:17:03;9.80;;;6.05;;
23716;SDS011;22094;52.130;5.598;2022-08-03T02:19:30;10.00;;;5.80;;
23716;SDS011;22094;52.130;5.598;2022-08-03T02:21:58;21.95;;;6.63;;
23716;SDS011;22094;52.130;5.598;2022-08-03T02:24:24;16.77;;;6.00;;
23716;SDS011;22094;52.130;5.598;2022-08-03T02:26:50;17.60;;;6.20;;
23716;SDS011;22094;52.130;5.598;2022-08-03T02:29:20;16.27;;;6.15;;
23716;SDS011;22094;52.130;5.598;2022-08-03T02:31:48;19.00;;;6.25;;
23716;SDS011;22094;52.130;5.598;2022-08-03T02:34:15;15.18;;;6.28;;
23716;SDS011;22094;52.130;5.598;2022-08-03T02:36:43;15.27;;;6.28;;
23716;SDS011;22094;52.130;5.598;2022-08-03T02:39:14;13.40;;;5.55;;
23716;SDS011;22094;52.130;5.598;2022-08-03T02:41:44;14.70;;;5.55;;
23716;SDS011;22094;52.130;5.598;2022-08-03T02:44:13;14.52;;;5.90;;
23716;SDS011;22094;52.130;5.598;2022-08-03T02:46:42;19.60;;;5.90;;
23716;SDS011;22094;52.130;5.598;2022-08-03T02:49:11;17.63;;;5.80;;
23716;SDS011;22094;52.130;5.598;2022-08-03T02:51:38;15.52;;;6.30;;
23716;SDS011;22094;52.130;5.598;2022-08-03T02:54:05;16.92;;;6.07;;
23716;SDS011;22094;52.130;5.598;2022-08-03T02:56:32;15.25;;;6.10;;
23716;SDS011;22094;52.130;5.598;2022-08-03T02:58:59;15.07;;;5.63;;
23716;SDS011;22094;52.130;5.598;2022-08-03T03:01:26;15.45;;;6.15;;
23716;SDS011;22094;52.130;5.598;2022-08-03T03:03:53;15.30;;;6.40;;
23716;SDS011;22094;52.130;5.598;2022-08-03T03:06:21;9.73;;;6.25;;
23716;SDS011;22094;52.130;5.598;2022-08-03T03:08:49;14.45;;;6.57;;
23716;SDS011;22094;52.130;5.598;2022-08-03T03:11:16;11.38;;;6.28;;
23716;SDS011;22094;52.130;5.598;2022-08-03T03:13:43;13.10;;;6.43;;
23716;SDS011;22094;52.130;5.598;2022-08-03T03:16:11;17.92;;;6.72;;
23716;SDS011;22094;52.130;5.598;2022-08-03T03:18:38;19.17;;;6.90;;
23716;SDS011;22094;52.130;5.598;2022-08-03T03:21:04;23.25;;;7.18;;
23716;SDS011;22094;52.130;5.598;2022-08-03T03:23:32;14.48;;;6.13;;
23716;SDS011;22094;52.130;5.598;2022-08-03T03:26:00;21.17;;;7.10;;
23716;SDS011;22094;52.130;5.598;2022-08-03T03:28:27;16.77;;;7.35;;
23716;SDS011;22094;52.130;5.598;2022-08-03T03:30:54;21.75;;;7.15;;
23716;SDS011;22094;52.130;5.598;2022-08-03T03:33:20;22.90;;;8.05;;
23716;SDS011;22094;52.130;5.598;2022-08-03T03:35:46;18.13;;;7.63;;
23716;SDS011;22094;52.130;5.598;2022-08-03T03:38:12;19.70;;;7.43;;
23716;SDS011;22094;52.130;5.598;2022-08-03T03:40:38;22.40;;;7.40;;
23716;SDS011;22094;52.130;5.598;2022-08-03T03:43:08;12.32;;;7.15;;
23716;SDS011;22094;52.130;5.598;2022-08-03T03:45:34;20.58;;;7.85;;
23716;SDS011;22094;52.130;5.598;2022-08-03T03:48:00;17.45;;;7.18;;
23716;SDS011;22094;52.130;5.598;2022-08-03T03:50:27;16.20;;;7.63;;
23716;SDS011;22094;52.130;5.598;2022-08-03T03:52:55;19.90;;;7.65;;
23716;SDS011;22094;52.130;5.598;2022-08-03T03:55:21;19.67;;;6.78;;
23716;SDS011;22094;52.130;5.598;2022-08-03T03:57:47;16.38;;;6.78;;
23716;SDS011;22094;52.130;5.598;2022-08-03T04:00:13;21.52;;;7.47;;
23716;SDS011;22094;52.130;5.598;2022-08-03T04:02:40;17.92;;;7.50;;
23716;SDS011;22094;52.130;5.598;2022-08-03T04:05:06;17.00;;;6.85;;
23716;SDS011;22094;52.130;5.598;2022-08-03T04:07:55;19.92;;;7.07;;
23716;SDS011;22094;52.130;5.598;2022-08-03T04:11:10;19.50;;;6.97;;
23716;SDS011;22094;52.130;5.598;2022-08-03T04:13:38;19.85;;;7.13;;
23716;SDS011;22094;52.130;5.598;2022-08-03T04:16:08;21.20;;;6.97;;
23716;SDS011;22094;52.130;5.598;2022-08-03T04:18:37;18.50;;;6.93;;
23716;SDS011;22094;52.130;5.598;2022-08-03T04:21:06;19.92;;;7.38;;
23716;SDS011;22094;52.130;5.598;2022-08-03T04:23:36;20.20;;;7.97;;
23716;SDS011;22094;52.130;5.598;2022-08-03T04:26:04;23.73;;;7.47;;
23716;SDS011;22094;52.130;5.598;2022-08-03T04:28:33;13.73;;;7.20;;
23716;SDS011;22094;52.130;5.598;2022-08-03T04:31:02;20.15;;;7.15;;
23716;SDS011;22094;52.130;5.598;2022-08-03T04:33:30;26.95;;;6.57;;
23716;SDS011;22094;52.130;5.598;2022-08-03T04:36:00;16.95;;;7.15;;
23716;SDS011;22094;52.130;5.598;2022-08-03T04:38:28;18.17;;;6.60;;
23716;SDS011;22094;52.130;5.598;2022-08-03T04:41:00;15.30;;;7.20;;
23716;SDS011;22094;52.130;5.598;2022-08-03T04:43:26;19.23;;;7.00;;
23716;SDS011;22094;52.130;5.598;2022-08-03T04:45:53;14.43;;;6.38;;
23716;SDS011;22094;52.130;5.598;2022-08-03T04:48:20;13.55;;;5.90;;
23716;SDS011;22094;52.130;5.598;2022-08-03T04:50:46;16.15;;;6.07;;
23716;SDS011;22094;52.130;5.598;2022-08-03T04:53:12;11.65;;;4.90;;
23716;SDS011;22094;52.130;5.598;2022-08-03T04:55:38;20.77;;;5.22;;
23716;SDS011;22094;52.130;5.598;2022-08-03T04:58:03;22.25;;;5.57;;
23716;SDS011;22094;52.130;5.598;2022-08-03T05:00:30;16.25;;;4.70;;
23716;SDS011;22094;52.130;5.598;2022-08-03T05:02:56;13.13;;;4.60;;
23716;SDS011;22094;52.130;5.598;2022-08-03T05:05:22;14.73;;;4.15;;
23716;SDS011;22094;52.130;5.598;2022-08-03T05:07:48;15.98;;;4.28;;
23716;SDS011;22094;52.130;5.598;2022-08-03T05:10:14;16.98;;;4.13;;
23716;SDS011;22094;52.130;5.598;2022-08-03T05:12:40;14.90;;;4.20;;
23716;SDS011;22094;52.130;5.598;2022-08-03T05:15:05;9.80;;;4.07;;
23716;SDS011;22094;52.130;5.598;2022-08-03T05:17:31;15.18;;;4.22;;
23716;SDS011;22094;52.130;5.598;2022-08-03T05:20:00;13.05;;;4.53;;
23716;SDS011;22094;52.130;5.598;2022-08-03T05:22:28;16.83;;;4.40;;
23716;SDS011;22094;52.130;5.598;2022-08-03T05:24:53;12.60;;;4.20;;
23716;SDS011;22094;52.130;5.598;2022-08-03T05:27:19;14.85;;;4.20;;
23716;SDS011;22094;52.130;5.598;2022-08-03T05:29:46;14.68;;;4.18;;
23716;SDS011;22094;52.130;5.598;2022-08-03T05:32:13;12.88;;;4.00;;
23716;SDS011;22094;52.130;5.598;2022-08-03T05:34:39;11.30;;;3.80;;
23716;SDS011;22094;52.130;5.598;2022-08-03T05:37:05;14.77;;;4.10;;
23716;SDS011;22094;52.130;5.598;2022-08-03T05:39:31;18.55;;;4.22;;
23716;SDS011;22094;52.130;5.598;2022-08-03T05:41:57;14.18;;;3.63;;
23716;SDS011;22094;52.130;5.598;2022-08-03T05:44:23;11.90;;;3.70;;
23716;SDS011;22094;52.130;5.598;2022-08-03T05:46:49;18.88;;;3.95;;
23716;SDS011;22094;52.130;5.598;2022-08-03T05:49:15;22.65;;;3.90;;
23716;SDS011;22094;52.130;5.598;2022-08-03T05:51:41;11.88;;;3.42;;
23716;SDS011;22094;52.130;5.598;2022-08-03T05:54:06;17.65;;;3.50;;
23716;SDS011;22094;52.130;5.598;2022-08-03T05:56:32;18.45;;;3.92;;
23716;SDS011;22094;52.130;5.598;2022-08-03T05:58:58;15.68;;;3.75;;
23716;SDS011;22094;52.130;5.598;2022-08-03T06:01:24;21.27;;;4.30;;
23716;SDS011;22094;52.130;5.598;2022-08-03T06:03:50;17.20;;;3.92;;
23716;SDS011;22094;52.130;5.598;2022-08-03T06:06:16;9.68;;;3.47;;
23716;SDS011;22094;52.130;5.598;2022-08-03T06:08:43;14.93;;;3.85;;
23716;SDS011;22094;52.130;5.598;2022-08-03T06:11:09;11.93;;;3.75;;
23716;SDS011;22094;52.130;5.598;2022-08-03T06:13:35;17.27;;;3.70;;
23716;SDS011;22094;52.130;5.598;2022-08-03T06:16:01;12.60;;;3.60;;
23716;SDS011;22094;52.130;5.598;2022-08-03T06:18:27;12.18;;;3.55;;
23716;SDS011;22094;52.130;5.598;2022-08-03T06:20:53;13.57;;;3.45;;
23716;SDS011;22094;52.130;5.598;2022-08-03T06:23:19;13.02;;;3.38;;
23716;SDS011;22094;52.130;5.598;2022-08-03T06:25:45;10.93;;;3.38;;
23716;SDS011;22094;52.130;5.598;2022-08-03T06:28:11;15.05;;;3.45;;
23716;SDS011;22094;52.130;5.598;2022-08-03T06:30:42;14.82;;;3.50;;
23716;SDS011;22094;52.130;5.598;2022-08-03T06:33:08;19.02;;;3.67;;
23716;SDS011;22094;52.130;5.598;2022-08-03T06:35:34;15.07;;;3.60;;
23716;SDS011;22094;52.130;5.598;2022-08-03T06:38:00;18.50;;;3.85;;
23716;SDS011;22094;52.130;5.598;2022-08-03T06:40:26;13.05;;;3.60;;
23716;SDS011;22094;52.130;5.598;2022-08-03T06:42:56;19.38;;;3.80;;
23716;SDS011;22094;52.130;5.598;2022-08-03T06:45:23;14.85;;;3.63;;
23716;SDS011;22094;52.130;5.598;2022-08-03T06:47:59;14.80;;;3.80;;
23716;SDS011;22094;52.130;5.598;2022-08-03T06:50:26;15.15;;;3.75;;
23716;SDS011;22094;52.130;5.598;2022-08-03T06:52:52;20.30;;;3.80;;
23716;SDS011;22094;52.130;5.598;2022-08-03T06:55:18;16.00;;;3.67;;
23716;SDS011;22094;52.130;5.598;2022-08-03T06:57:44;21.50;;;3.78;;
23716;SDS011;22094;52.130;5.598;2022-08-03T07:00:10;13.57;;;3.70;;
23716;SDS011;22094;52.130;5.598;2022-08-03T07:02:37;15.65;;;3.35;;
23716;SDS011;22094;52.130;5.598;2022-08-03T07:05:03;15.70;;;3.90;;
23716;SDS011;22094;52.130;5.598;2022-08-03T07:07:29;16.95;;;3.47;;
23716;SDS011;22094;52.130;5.598;2022-08-03T07:09:55;16.90;;;3.50;;
23716;SDS011;22094;52.130;5.598;2022-08-03T07:12:21;15.02;;;3.70;;
23716;SDS011;22094;52.130;5.598;2022-08-03T07:14:47;16.88;;;3.95;;
23716;SDS011;22094;52.130;5.598;2022-08-03T07:17:13;16.33;;;3.67;;
23716;SDS011;22094;52.130;5.598;2022-08-03T07:19:39;16.15;;;3.50;;
23716;SDS011;22094;52.130;5.598;2022-08-03T07:22:05;16.13;;;3.42;;
23716;SDS011;22094;52.130;5.598;2022-08-03T07:24:32;10.45;;;3.50;;
23716;SDS011;22094;52.130;5.598;2022-08-03T07:26:58;14.95;;;3.38;;
23716;SDS011;22094;52.130;5.598;2022-08-03T07:29:24;11.68;;;3.33;;
23716;SDS011;22094;52.130;5.598;2022-08-03T07:31:50;15.15;;;3.05;;
23716;SDS011;22094;52.130;5.598;2022-08-03T07:34:16;19.20;;;3.30;;
23716;SDS011;22094;52.130;5.598;2022-08-03T07:36:42;9.93;;;3.20;;
23716;SDS011;22094;52.130;5.598;2022-08-03T07:39:08;13.15;;;2.97;;
23716;SDS011;22094;52.130;5.598;2022-08-03T07:41:34;12.10;;;2.95;;
23716;SDS011;22094;52.130;5.598;2022-08-03T07:44:00;15.57;;;3.50;;
23716;SDS011;22094;52.130;5.598;2022-08-03T07:46:26;17.35;;;3.58;;
23716;SDS011;22094;52.130;5.598;2022-08-03T07:48:52;14.13;;;3.30;;
23716;SDS011;22094;52.130;5.598;2022-08-03T07:51:18;12.45;;;3.35;;
23716;SDS011;22094;52.130;5.598;2022-08-03T07:53:44;13.48;;;3.25;;
23716;SDS011;22094;52.130;5.598;2022-08-03T07:56:10;16.73;;;3.30;;
23716;SDS011;22094;52.130;5.598;2022-08-03T07:58:36;15.20;;;3.58;;
23716;SDS011;22094;52.130;5.598;2022-08-03T08:01:02;17.00;;;3.70;;
23716;SDS011;22094;52.130;5.598;2022-08-03T08:03:28;17.65;;;3.10;;
23716;SDS011;22094;52.130;5.598;2022-08-03T08:05:54;16.17;;;3.15;;
23716;SDS011;22094;52.130;5.598;2022-08-03T08:08:20;15.60;;;3.25;;
23716;SDS011;22094;52.130;5.598;2022-08-03T08:10:46;12.45;;;2.67;;
23716;SDS011;22094;52.130;5.598;2022-08-03T08:13:12;10.85;;;2.70;;
23716;SDS011;22094;52.130;5.598;2022-08-03T08:15:38;15.02;;;2.90;;
23716;SDS011;22094;52.130;5.598;2022-08-03T08:18:04;15.20;;;3.10;;
23716;SDS011;22094;52.130;5.598;2022-08-03T08:20:31;14.80;;;2.67;;
23716;SDS011;22094;52.130;5.598;2022-08-03T08:22:58;19.02;;;3.35;;
23716;SDS011;22094;52.130;5.598;2022-08-03T08:25:25;14.38;;;2.83;;
23716;SDS011;22094;52.130;5.598;2022-08-03T08:27:51;15.65;;;3.45;;
23716;SDS011;22094;52.130;5.598;2022-08-03T08:30:18;13.27;;;3.03;;
23716;SDS011;22094;52.130;5.598;2022-08-03T08:32:45;13.20;;;3.00;;
23716;SDS011;22094;52.130;5.598;2022-08-03T08:35:11;20.15;;;3.22;;
23716;SDS011;22094;52.130;5.598;2022-08-03T08:37:37;21.27;;;3.50;;
23716;SDS011;22094;52.130;5.598;2022-08-03T08:40:04;17.40;;;2.80;;
23716;SDS011;22094;52.130;5.598;2022-08-03T08:42:31;15.80;;;3.42;;
23716;SDS011;22094;52.130;5.598;2022-08-03T08:44:57;15.18;;;3.00;;
23716;SDS011;22094;52.130;5.598;2022-08-03T08:47:23;20.85;;;3.42;;
23716;SDS011;22094;52.130;5.598;2022-08-03T08:49:51;15.68;;;3.15;;
23716;SDS011;22094;52.130;5.598;2022-08-03T08:52:20;18.08;;;3.17;;
23716;SDS011;22094;52.130;5.598;2022-08-03T08:54:49;16.73;;;3.10;;
23716;SDS011;22094;52.130;5.598;2022-08-03T08:57:15;21.25;;;3.33;;
23716;SDS011;22094;52.130;5.598;2022-08-03T08:59:42;23.13;;;3.25;;
23716;SDS011;22094;52.130;5.598;2022-08-03T09:02:08;19.77;;;3.45;;
23716;SDS011;22094;52.130;5.598;2022-08-03T09:04:35;23.98;;;3.72;;
23716;SDS011;22094;52.130;5.598;2022-08-03T09:07:03;19.52;;;3.60;;
23716;SDS011;22094;52.130;5.598;2022-08-03T09:09:29;22.85;;;3.63;;
23716;SDS011;22094;52.130;5.598;2022-08-03T09:11:55;16.50;;;3.92;;
23716;SDS011;22094;52.130;5.598;2022-08-03T09:14:21;21.17;;;4.50;;
23716;SDS011;22094;52.130;5.598;2022-08-03T09:16:57;15.02;;;3.20;;
23716;SDS011;22094;52.130;5.598;2022-08-03T09:19:26;22.05;;;3.42;;
23716;SDS011;22094;52.130;5.598;2022-08-03T09:24:55;19.08;;;3.55;;
23716;SDS011;22094;52.130;5.598;2022-08-03T09:27:21;20.27;;;3.50;;
23716;SDS011;22094;52.130;5.598;2022-08-03T09:29:47;19.70;;;3.53;;
23716;SDS011;22094;52.130;5.598;2022-08-03T09:32:14;15.20;;;3.80;;
23716;SDS011;22094;52.130;5.598;2022-08-03T09:34:40;20.85;;;3.53;;
23716;SDS011;22094;52.130;5.598;2022-08-03T09:37:13;18.77;;;3.47;;
23716;SDS011;22094;52.130;5.598;2022-08-03T09:39:40;16.05;;;3.85;;
23716;SDS011;22094;52.130;5.598;2022-08-03T09:42:07;14.82;;;3.50;;
23716;SDS011;22094;52.130;5.598;2022-08-03T09:44:34;22.58;;;3.80;;
23716;SDS011;22094;52.130;5.598;2022-08-03T09:47:01;23.35;;;3.58;;
23716;SDS011;22094;52.130;5.598;2022-08-03T09:49:27;18.08;;;3.35;;
23716;SDS011;22094;52.130;5.598;2022-08-03T09:51:53;18.73;;;3.33;;
23716;SDS011;22094;52.130;5.598;2022-08-03T09:54:28;23.45;;;3.83;;
23716;SDS011;22094;52.130;5.598;2022-08-03T09:56:55;18.10;;;3.17;;
23716;SDS011;22094;52.130;5.598;2022-08-03T09:59:25;20.30;;;3.42;;
23716;SDS011;22094;52.130;5.598;2022-08-03T10:01:55;20.90;;;3.88;;
23716;SDS011;22094;52.130;5.598;2022-08-03T10:04:22;19.65;;;3.92;;
23716;SDS011;22094;52.130;5.598;2022-08-03T10:07:04;18.70;;;3.60;;
23716;SDS011;22094;52.130;5.598;2022-08-03T10:09:30;19.23;;;3.75;;
23716;SDS011;22094;52.130;5.598;2022-08-03T10:11:56;18.83;;;3.28;;
23716;SDS011;22094;52.130;5.598;2022-08-03T10:14:23;24.27;;;3.53;;
23716;SDS011;22094;52.130;5.598;2022-08-03T10:16:54;15.60;;;2.92;;
23716;SDS011;22094;52.130;5.598;2022-08-03T10:19:20;13.32;;;2.75;;
23716;SDS011;22094;52.130;5.598;2022-08-03T10:21:51;16.73;;;3.20;;
23716;SDS011;22094;52.130;5.598;2022-08-03T10:24:23;15.20;;;3.33;;
23716;SDS011;22094;52.130;5.598;2022-08-03T10:27:00;18.17;;;3.25;;
23716;SDS011;22094;52.130;5.598;2022-08-03T10:29:27;15.80;;;3.15;;
23716;SDS011;22094;52.130;5.598;2022-08-03T10:31:57;16.17;;;3.22;;
23716;SDS011;22094;52.130;5.598;2022-08-03T10:34:25;13.25;;;3.08;;
23716;SDS011;22094;52.130;5.598;2022-08-03T10:36:55;19.13;;;3.33;;
23716;SDS011;22094;52.130;5.598;2022-08-03T10:39:23;16.00;;;3.08;;
23716;SDS011;22094;52.130;5.598;2022-08-03T10:41:52;18.63;;;3.20;;
23716;SDS011;22094;52.130;5.598;2022-08-03T10:44:22;12.10;;;2.97;;
23716;SDS011;22094;52.130;5.598;2022-08-03T10:46:49;17.25;;;2.83;;
23716;SDS011;22094;52.130;5.598;2022-08-03T10:49:18;14.45;;;2.78;;
23716;SDS011;22094;52.130;5.598;2022-08-03T10:51:45;13.13;;;2.97;;
23716;SDS011;22094;52.130;5.598;2022-08-03T10:54:36;11.70;;;2.72;;
23716;SDS011;22094;52.130;5.598;2022-08-03T11:00:19;10.10;;;2.67;;
23716;SDS011;22094;52.130;5.598;2022-08-03T11:05:31;12.82;;;2.88;;
23716;SDS011;22094;52.130;5.598;2022-08-03T11:10:43;12.23;;;2.75;;
23716;SDS011;22094;52.130;5.598;2022-08-03T11:13:10;14.18;;;2.53;;
23716;SDS011;22094;52.130;5.598;2022-08-03T11:15:40;14.63;;;2.72;;
23716;SDS011;22094;52.130;5.598;2022-08-03T11:18:09;9.93;;;2.53;;
23716;SDS011;22094;52.130;5.598;2022-08-03T11:20:45;11.68;;;2.63;;
23716;SDS011;22094;52.130;5.598;2022-08-03T11:26:10;19.23;;;3.00;;
23716;SDS011;22094;52.130;5.598;2022-08-03T11:28:37;11.38;;;2.45;;
23716;SDS011;22094;52.130;5.598;2022-08-03T11:34:02;14.70;;;3.05;;
23716;SDS011;22094;52.130;5.598;2022-08-03T11:36:29;13.02;;;3.15;;
23716;SDS011;22094;52.130;5.598;2022-08-03T11:41:40;11.63;;;2.80;;
23716;SDS011;22094;52.130;5.598;2022-08-03T11:44:06;14.10;;;2.60;;
23716;SDS011;22094;52.130;5.598;2022-08-03T11:46:36;12.90;;;2.53;;
23716;SDS011;22094;52.130;5.598;2022-08-03T11:49:05;14.60;;;2.55;;
23716;SDS011;22094;52.130;5.598;2022-08-03T11:51:31;18.45;;;2.42;;
23716;SDS011;22094;52.130;5.598;2022-08-03T11:54:01;20.15;;;2.80;;
23716;SDS011;22094;52.130;5.598;2022-08-03T11:56:42;10.45;;;2.22;;
23716;SDS011;22094;52.130;5.598;2022-08-03T11:59:12;10.18;;;2.10;;
23716;SDS011;22094;52.130;5.598;2022-08-03T12:01:38;9.05;;;2.13;;
23716;SDS011;22094;52.130;5.598;2022-08-03T12:04:04;11.70;;;2.28;;
23716;SDS011;22094;52.130;5.598;2022-08-03T12:06:30;16.80;;;2.63;;
23716;SDS011;22094;52.130;5.598;2022-08-03T12:09:19;9.43;;;2.38;;
23716;SDS011;22094;52.130;5.598;2022-08-03T12:11:48;12.30;;;2.38;;
23716;SDS011;22094;52.130;5.598;2022-08-03T12:14:18;17.13;;;2.60;;
23716;SDS011;22094;52.130;5.598;2022-08-03T12:16:47;10.52;;;2.10;;
23716;SDS011;22094;52.130;5.598;2022-08-03T12:19:13;7.07;;;1.98;;
23716;SDS011;22094;52.130;5.598;2022-08-03T12:21:46;12.15;;;2.70;;
23716;SDS011;22094;52.130;5.598;2022-08-03T12:24:13;10.85;;;1.92;;
23716;SDS011;22094;52.130;5.598;2022-08-03T12:26:48;13.32;;;2.53;;
23716;SDS011;22094;52.130;5.598;2022-08-03T12:29:15;12.15;;;2.10;;
23716;SDS011;22094;52.130;5.598;2022-08-03T12:31:49;12.95;;;2.50;;
23716;SDS011;22094;52.130;5.598;2022-08-03T12:34:15;10.15;;;2.20;;
23716;SDS011;22094;52.130;5.598;2022-08-03T12:36:54;10.50;;;2.30;;
23716;SDS011;22094;52.130;5.598;2022-08-03T12:39:24;11.77;;;2.20;;
23716;SDS011;22094;52.130;5.598;2022-08-03T12:41:52;12.75;;;2.33;;
23716;SDS011;22094;52.130;5.598;2022-08-03T12:44:27;8.82;;;2.03;;
23716;SDS011;22094;52.130;5.598;2022-08-03T12:46:57;10.68;;;2.35;;
23716;SDS011;22094;52.130;5.598;2022-08-03T12:49:24;8.63;;;2.05;;
23716;SDS011;22094;52.130;5.598;2022-08-03T12:54:16;8.43;;;1.92;;
23716;SDS011;22094;52.130;5.598;2022-08-03T12:57:16;10.55;;;1.95;;
23716;SDS011;22094;52.130;5.598;2022-08-03T12:59:39;7.60;;;1.95;;
23716;SDS011;22094;52.130;5.598;2022-08-03T13:02:23;7.65;;;1.92;;
23716;SDS011;22094;52.130;5.598;2022-08-03T13:04:50;5.03;;;1.58;;
23716;SDS011;22094;52.130;5.598;2022-08-03T13:07:19;9.98;;;1.65;;
23716;SDS011;22094;52.130;5.598;2022-08-03T13:09:54;5.40;;;1.60;;
23716;SDS011;22094;52.130;5.598;2022-08-03T13:12:24;10.95;;;2.00;;
23716;SDS011;22094;52.130;5.598;2022-08-03T13:14:53;6.90;;;1.73;;
23716;SDS011;22094;52.130;5.598;2022-08-03T13:17:20;6.43;;;1.75;;
23716;SDS011;22094;52.130;5.598;2022-08-03T13:19:47;7.95;;;2.03;;
23716;SDS011;22094;52.130;5.598;2022-08-03T13:22:13;5.85;;;1.98;;
23716;SDS011;22094;52.130;5.598;2022-08-03T13:24:40;9.18;;;1.77;;
23716;SDS011;22094;52.130;5.598;2022-08-03T13:27:07;6.97;;;2.03;;
23716;SDS011;22094;52.130;5.598;2022-08-03T13:29:33;7.10;;;1.70;;
23716;SDS011;22094;52.130;5.598;2022-08-03T13:32:00;4.70;;;1.67;;
23716;SDS011;22094;52.130;5.598;2022-08-03T13:34:26;7.60;;;2.08;;
23716;SDS011;22094;52.130;5.598;2022-08-03T13:36:52;7.07;;;1.90;;
23716;SDS011;22094;52.130;5.598;2022-08-03T13:39:18;9.25;;;1.88;;
23716;SDS011;22094;52.130;5.598;2022-08-03T13:41:44;4.72;;;2.08;;
23716;SDS011;22094;52.130;5.598;2022-08-03T13:44:11;7.60;;;1.80;;
23716;SDS011;22094;52.130;5.598;2022-08-03T13:46:37;4.85;;;1.40;;
23716;SDS011;22094;52.130;5.598;2022-08-03T13:49:03;9.85;;;1.90;;
23716;SDS011;22094;52.130;5.598;2022-08-03T13:51:29;5.13;;;1.80;;
23716;SDS011;22094;52.130;5.598;2022-08-03T13:53:55;6.07;;;1.80;;
23716;SDS011;22094;52.130;5.598;2022-08-03T13:56:23;5.35;;;1.60;;
23716;SDS011;22094;52.130;5.598;2022-08-03T13:58:49;7.28;;;1.80;;
23716;SDS011;22094;52.130;5.598;2022-08-03T14:01:15;5.68;;;1.80;;
23716;SDS011;22094;52.130;5.598;2022-08-03T14:03:41;5.68;;;1.80;;
23716;SDS011;22094;52.130;5.598;2022-08-03T14:06:07;5.57;;;1.73;;
23716;SDS011;22094;52.130;5.598;2022-08-03T14:08:33;5.93;;;1.73;;
23716;SDS011;22094;52.130;5.598;2022-08-03T14:10:59;9.80;;;1.70;;
23716;SDS011;22094;52.130;5.598;2022-08-03T14:13:25;8.00;;;1.85;;
23716;SDS011;22094;52.130;5.598;2022-08-03T14:15:51;4.70;;;1.65;;
23716;SDS011;22094;52.130;5.598;2022-08-03T14:18:19;8.10;;;1.98;;
23716;SDS011;22094;52.130;5.598;2022-08-03T14:20:46;6.72;;;2.08;;
23716;SDS011;22094;52.130;5.598;2022-08-03T14:23:12;7.97;;;2.03;;
23716;SDS011;22094;52.130;5.598;2022-08-03T14:25:38;6.90;;;1.80;;
23716;SDS011;22094;52.130;5.598;2022-08-03T14:28:05;5.57;;;2.15;;
23716;SDS011;22094;52.130;5.598;2022-08-03T14:30:31;4.93;;;1.80;;
23716;SDS011;22094;52.130;5.598;2022-08-03T14:32:57;4.22;;;1.75;;
23716;SDS011;22094;52.130;5.598;2022-08-03T14:35:23;6.82;;;2.10;;
23716;SDS011;22094;52.130;5.598;2022-08-03T14:37:49;7.05;;;2.00;;
23716;SDS011;22094;52.130;5.598;2022-08-03T14:40:16;6.40;;;1.73;;
23716;SDS011;22094;52.130;5.598;2022-08-03T14:42:41;7.35;;;1.90;;
23716;SDS011;22094;52.130;5.598;2022-08-03T14:45:08;5.78;;;1.75;;
23716;SDS011;22094;52.130;5.598;2022-08-03T14:47:34;2.92;;;1.50;;
23716;SDS011;22094;52.130;5.598;2022-08-03T14:50:00;4.55;;;1.55;;
23716;SDS011;22094;52.130;5.598;2022-08-03T14:52:28;5.13;;;1.42;;
23716;SDS011;22094;52.130;5.598;2022-08-03T14:54:54;5.50;;;1.58;;
23716;SDS011;22094;52.130;5.598;2022-08-03T14:57:20;5.47;;;1.70;;
23716;SDS011;22094;52.130;5.598;2022-08-03T14:59:46;3.38;;;1.42;;
23716;SDS011;22094;52.130;5.598;2022-08-03T15:02:12;9.82;;;1.65;;
23716;SDS011;22094;52.130;5.598;2022-08-03T15:04:38;5.90;;;1.60;;
23716;SDS011;22094;52.130;5.598;2022-08-03T15:07:04;3.17;;;1.48;;
23716;SDS011;22094;52.130;5.598;2022-08-03T15:09:31;7.53;;;1.67;;
23716;SDS011;22094;52.130;5.598;2022-08-03T15:11:57;3.67;;;1.48;;
23716;SDS011;22094;52.130;5.598;2022-08-03T15:14:23;6.88;;;1.52;;
23716;SDS011;22094;52.130;5.598;2022-08-03T15:16:49;5.05;;;1.50;;
23716;SDS011;22094;52.130;5.598;2022-08-03T15:19:14;4.53;;;1.60;;
23716;SDS011;22094;52.130;5.598;2022-08-03T15:21:40;6.63;;;1.73;;